sensor_id;sensor_type;location;lat;lon;timestamp;P1;durP1;ratioP1;P2;durP2;ratioP2
56141;SDS011;42018;48.588;10.836;2022-12-18T00:00:10;63.03;;;28.23;;
56141;SDS011;42018;48.588;10.836;2022-12-18T00:02:56;74.38;;;30.50;;
56141;SDS011;42018;48.588;10.836;2022-12-18T00:05:48;60.40;;;27.77;;
56141;SDS011;42018;48.588;10.836;2022-12-18T00:08:35;58.75;;;27.75;;
56141;SDS011;42018;48.588;10.836;2022-12-18T00:11:21;58.47;;;27.77;;
56141;SDS011;42018;48.588;10.836;2022-12-18T00:14:09;48.10;;;24.80;;
56141;SDS011;42018;48.588;10.836;2022-12-18T00:16:56;58.70;;;27.05;;
56141;SDS011;42018;48.588;10.836;2022-12-18T00:19:43;57.75;;;25.83;;
56141;SDS011;42018;48.588;10.836;2022-12-18T00:22:28;65.38;;;30.50;;
56141;SDS011;42018;48.588;10.836;2022-12-18T00:25:13;66.45;;;30.73;;
56141;SDS011;42018;48.588;10.836;2022-12-18T00:27:59;75.57;;;31.65;;
56141;SDS011;42018;48.588;10.836;2022-12-18T00:30:44;65.60;;;27.67;;
56141;SDS011;42018;48.588;10.836;2022-12-18T00:33:30;70.05;;;29.33;;
56141;SDS011;42018;48.588;10.836;2022-12-18T00:36:19;78.80;;;31.52;;
56141;SDS011;42018;48.588;10.836;2022-12-18T00:39:07;60.17;;;27.90;;
56141;SDS011;42018;48.588;10.836;2022-12-18T00:41:52;60.65;;;26.65;;
56141;SDS011;42018;48.588;10.836;2022-12-18T00:44:56;60.40;;;28.90;;
56141;SDS011;42018;48.588;10.836;2022-12-18T00:47:41;71.55;;;28.77;;
56141;SDS011;42018;48.588;10.836;2022-12-18T00:50:27;66.85;;;27.77;;
56141;SDS011;42018;48.588;10.836;2022-12-18T00:53:12;68.57;;;28.40;;
56141;SDS011;42018;48.588;10.836;2022-12-18T00:55:58;60.60;;;26.77;;
56141;SDS011;42018;48.588;10.836;2022-12-18T00:58:43;65.68;;;29.27;;
56141;SDS011;42018;48.588;10.836;2022-12-18T01:01:28;73.45;;;27.30;;
56141;SDS011;42018;48.588;10.836;2022-12-18T01:04:14;58.65;;;24.67;;
56141;SDS011;42018;48.588;10.836;2022-12-18T01:06:59;58.00;;;25.10;;
56141;SDS011;42018;48.588;10.836;2022-12-18T01:09:44;63.08;;;26.15;;
56141;SDS011;42018;48.588;10.836;2022-12-18T01:12:30;61.95;;;26.67;;
56141;SDS011;42018;48.588;10.836;2022-12-18T01:15:16;62.63;;;26.80;;
56141;SDS011;42018;48.588;10.836;2022-12-18T01:18:02;67.53;;;28.48;;
56141;SDS011;42018;48.588;10.836;2022-12-18T01:20:47;62.00;;;24.55;;
56141;SDS011;42018;48.588;10.836;2022-12-18T01:23:33;63.35;;;26.77;;
56141;SDS011;42018;48.588;10.836;2022-12-18T01:26:18;53.83;;;24.67;;
56141;SDS011;42018;48.588;10.836;2022-12-18T01:29:04;56.10;;;25.70;;
56141;SDS011;42018;48.588;10.836;2022-12-18T01:31:49;59.63;;;24.33;;
56141;SDS011;42018;48.588;10.836;2022-12-18T01:34:35;62.13;;;25.88;;
56141;SDS011;42018;48.588;10.836;2022-12-18T01:37:21;52.30;;;24.38;;
56141;SDS011;42018;48.588;10.836;2022-12-18T01:40:07;56.03;;;23.92;;
56141;SDS011;42018;48.588;10.836;2022-12-18T01:42:53;53.20;;;22.13;;
56141;SDS011;42018;48.588;10.836;2022-12-18T01:45:39;55.65;;;22.15;;
56141;SDS011;42018;48.588;10.836;2022-12-18T01:48:24;49.70;;;22.20;;
56141;SDS011;42018;48.588;10.836;2022-12-18T01:51:10;51.53;;;22.58;;
56141;SDS011;42018;48.588;10.836;2022-12-18T01:53:56;54.42;;;22.40;;
56141;SDS011;42018;48.588;10.836;2022-12-18T01:56:44;43.75;;;19.13;;
56141;SDS011;42018;48.588;10.836;2022-12-18T01:59:29;49.78;;;22.27;;
56141;SDS011;42018;48.588;10.836;2022-12-18T02:02:16;53.00;;;22.05;;
56141;SDS011;42018;48.588;10.836;2022-12-18T02:05:02;60.45;;;22.13;;
56141;SDS011;42018;48.588;10.836;2022-12-18T02:14:00;46.88;;;21.67;;
56141;SDS011;42018;48.588;10.836;2022-12-18T02:26:11;53.15;;;23.40;;
56141;SDS011;42018;48.588;10.836;2022-12-18T02:29:05;56.20;;;24.90;;
56141;SDS011;42018;48.588;10.836;2022-12-18T02:31:58;50.72;;;23.50;;
56141;SDS011;42018;48.588;10.836;2022-12-18T02:34:45;67.47;;;23.98;;
56141;SDS011;42018;48.588;10.836;2022-12-18T02:37:31;53.00;;;23.35;;
56141;SDS011;42018;48.588;10.836;2022-12-18T02:40:19;59.38;;;23.33;;
56141;SDS011;42018;48.588;10.836;2022-12-18T02:43:10;57.15;;;23.67;;
56141;SDS011;42018;48.588;10.836;2022-12-18T02:45:58;56.10;;;23.33;;
56141;SDS011;42018;48.588;10.836;2022-12-18T02:48:45;44.72;;;20.95;;
56141;SDS011;42018;48.588;10.836;2022-12-18T02:58:10;57.78;;;23.70;;
56141;SDS011;42018;48.588;10.836;2022-12-18T03:04:02;47.90;;;20.70;;
56141;SDS011;42018;48.588;10.836;2022-12-18T03:06:56;56.50;;;23.98;;
56141;SDS011;42018;48.588;10.836;2022-12-18T03:09:46;61.25;;;25.30;;
56141;SDS011;42018;48.588;10.836;2022-12-18T03:12:40;55.88;;;24.48;;
56141;SDS011;42018;48.588;10.836;2022-12-18T03:15:40;59.47;;;25.08;;
56141;SDS011;42018;48.588;10.836;2022-12-18T03:18:37;53.97;;;24.73;;
56141;SDS011;42018;48.588;10.836;2022-12-18T03:21:32;58.17;;;25.35;;
56141;SDS011;42018;48.588;10.836;2022-12-18T03:24:23;58.58;;;24.35;;
56141;SDS011;42018;48.588;10.836;2022-12-18T03:27:11;63.90;;;24.70;;
56141;SDS011;42018;48.588;10.836;2022-12-18T03:30:01;52.50;;;23.80;;
56141;SDS011;42018;48.588;10.836;2022-12-18T03:32:53;60.85;;;24.05;;
56141;SDS011;42018;48.588;10.836;2022-12-18T03:35:47;62.95;;;24.98;;
56141;SDS011;42018;48.588;10.836;2022-12-18T03:38:33;59.70;;;25.30;;
56141;SDS011;42018;48.588;10.836;2022-12-18T03:56:24;56.95;;;22.55;;
56141;SDS011;42018;48.588;10.836;2022-12-18T03:59:11;67.43;;;25.88;;
56141;SDS011;42018;48.588;10.836;2022-12-18T04:01:58;67.40;;;26.75;;
56141;SDS011;42018;48.588;10.836;2022-12-18T04:04:46;62.80;;;26.15;;
56141;SDS011;42018;48.588;10.836;2022-12-18T04:07:34;64.53;;;26.40;;
56141;SDS011;42018;48.588;10.836;2022-12-18T04:10:21;69.25;;;26.27;;
56141;SDS011;42018;48.588;10.836;2022-12-18T04:13:06;67.88;;;27.05;;
56141;SDS011;42018;48.588;10.836;2022-12-18T04:15:52;62.17;;;26.25;;
56141;SDS011;42018;48.588;10.836;2022-12-18T04:18:37;57.13;;;25.80;;
56141;SDS011;42018;48.588;10.836;2022-12-18T04:21:22;65.03;;;25.60;;
56141;SDS011;42018;48.588;10.836;2022-12-18T04:24:08;58.15;;;24.63;;
56141;SDS011;42018;48.588;10.836;2022-12-18T04:26:53;67.28;;;27.85;;
56141;SDS011;42018;48.588;10.836;2022-12-18T04:29:39;71.32;;;24.98;;
56141;SDS011;42018;48.588;10.836;2022-12-18T04:32:24;62.20;;;25.95;;
56141;SDS011;42018;48.588;10.836;2022-12-18T04:35:10;56.35;;;25.83;;
56141;SDS011;42018;48.588;10.836;2022-12-18T04:37:56;66.95;;;25.83;;
56141;SDS011;42018;48.588;10.836;2022-12-18T04:40:42;63.92;;;26.00;;
56141;SDS011;42018;48.588;10.836;2022-12-18T04:43:28;56.03;;;24.92;;
56141;SDS011;42018;48.588;10.836;2022-12-18T04:46:13;60.47;;;26.13;;
56141;SDS011;42018;48.588;10.836;2022-12-18T04:48:59;58.95;;;23.20;;
56141;SDS011;42018;48.588;10.836;2022-12-18T04:51:44;65.28;;;23.83;;
56141;SDS011;42018;48.588;10.836;2022-12-18T04:54:29;66.30;;;25.77;;
56141;SDS011;42018;48.588;10.836;2022-12-18T04:57:15;66.15;;;26.48;;
56141;SDS011;42018;48.588;10.836;2022-12-18T05:00:00;63.60;;;25.10;;
56141;SDS011;42018;48.588;10.836;2022-12-18T05:02:46;56.20;;;22.98;;
56141;SDS011;42018;48.588;10.836;2022-12-18T05:05:31;54.47;;;24.10;;
56141;SDS011;42018;48.588;10.836;2022-12-18T05:08:17;65.45;;;25.02;;
56141;SDS011;42018;48.588;10.836;2022-12-18T05:11:03;57.30;;;25.92;;
56141;SDS011;42018;48.588;10.836;2022-12-18T05:13:51;55.75;;;23.73;;
56141;SDS011;42018;48.588;10.836;2022-12-18T05:16:36;61.80;;;24.52;;
56141;SDS011;42018;48.588;10.836;2022-12-18T05:19:21;62.65;;;24.50;;
56141;SDS011;42018;48.588;10.836;2022-12-18T05:22:07;65.68;;;26.60;;
56141;SDS011;42018;48.588;10.836;2022-12-18T05:24:53;53.55;;;21.92;;
56141;SDS011;42018;48.588;10.836;2022-12-18T05:27:38;64.50;;;23.50;;
56141;SDS011;42018;48.588;10.836;2022-12-18T05:30:23;60.38;;;24.55;;
56141;SDS011;42018;48.588;10.836;2022-12-18T05:33:09;58.15;;;22.15;;
56141;SDS011;42018;48.588;10.836;2022-12-18T05:35:55;61.58;;;25.30;;
56141;SDS011;42018;48.588;10.836;2022-12-18T05:38:42;65.10;;;23.98;;
56141;SDS011;42018;48.588;10.836;2022-12-18T05:41:27;55.28;;;21.17;;
56141;SDS011;42018;48.588;10.836;2022-12-18T05:44:13;53.85;;;21.27;;
56141;SDS011;42018;48.588;10.836;2022-12-18T05:46:58;59.67;;;24.35;;
56141;SDS011;42018;48.588;10.836;2022-12-18T05:49:44;62.47;;;23.35;;
56141;SDS011;42018;48.588;10.836;2022-12-18T05:52:30;57.85;;;23.38;;
56141;SDS011;42018;48.588;10.836;2022-12-18T05:55:15;63.88;;;22.67;;
56141;SDS011;42018;48.588;10.836;2022-12-18T05:58:01;54.92;;;22.25;;
56141;SDS011;42018;48.588;10.836;2022-12-18T06:00:47;63.65;;;23.55;;
56141;SDS011;42018;48.588;10.836;2022-12-18T06:03:32;55.20;;;24.42;;
56141;SDS011;42018;48.588;10.836;2022-12-18T06:06:27;66.70;;;24.75;;
56141;SDS011;42018;48.588;10.836;2022-12-18T06:09:13;64.20;;;25.30;;
56141;SDS011;42018;48.588;10.836;2022-12-18T06:11:59;53.70;;;22.52;;
56141;SDS011;42018;48.588;10.836;2022-12-18T06:14:44;52.30;;;21.25;;
56141;SDS011;42018;48.588;10.836;2022-12-18T06:17:30;52.17;;;22.83;;
56141;SDS011;42018;48.588;10.836;2022-12-18T06:20:16;52.10;;;22.35;;
56141;SDS011;42018;48.588;10.836;2022-12-18T06:23:01;52.25;;;22.42;;
56141;SDS011;42018;48.588;10.836;2022-12-18T06:25:47;53.72;;;22.63;;
56141;SDS011;42018;48.588;10.836;2022-12-18T06:28:32;43.95;;;21.02;;
56141;SDS011;42018;48.588;10.836;2022-12-18T06:31:18;57.17;;;22.17;;
56141;SDS011;42018;48.588;10.836;2022-12-18T06:34:04;48.03;;;21.58;;
56141;SDS011;42018;48.588;10.836;2022-12-18T06:36:49;57.17;;;21.88;;
56141;SDS011;42018;48.588;10.836;2022-12-18T06:39:35;50.63;;;22.73;;
56141;SDS011;42018;48.588;10.836;2022-12-18T06:42:20;49.75;;;20.45;;
56141;SDS011;42018;48.588;10.836;2022-12-18T06:45:05;61.47;;;23.33;;
56141;SDS011;42018;48.588;10.836;2022-12-18T06:47:51;54.95;;;22.75;;
56141;SDS011;42018;48.588;10.836;2022-12-18T06:50:37;56.88;;;22.73;;
56141;SDS011;42018;48.588;10.836;2022-12-18T06:53:22;55.20;;;24.52;;
56141;SDS011;42018;48.588;10.836;2022-12-18T06:56:07;50.50;;;21.00;;
56141;SDS011;42018;48.588;10.836;2022-12-18T06:58:53;54.17;;;20.42;;
56141;SDS011;42018;48.588;10.836;2022-12-18T07:01:38;49.28;;;20.00;;
56141;SDS011;42018;48.588;10.836;2022-12-18T07:04:30;51.97;;;20.80;;
56141;SDS011;42018;48.588;10.836;2022-12-18T07:07:16;46.53;;;20.02;;
56141;SDS011;42018;48.588;10.836;2022-12-18T07:10:01;58.50;;;23.02;;
56141;SDS011;42018;48.588;10.836;2022-12-18T07:12:47;52.95;;;20.25;;
56141;SDS011;42018;48.588;10.836;2022-12-18T07:15:32;53.42;;;20.83;;
56141;SDS011;42018;48.588;10.836;2022-12-18T07:18:18;57.38;;;23.70;;
56141;SDS011;42018;48.588;10.836;2022-12-18T07:21:07;57.35;;;22.05;;
56141;SDS011;42018;48.588;10.836;2022-12-18T07:23:53;56.63;;;21.80;;
56141;SDS011;42018;48.588;10.836;2022-12-18T07:26:39;61.58;;;22.35;;
56141;SDS011;42018;48.588;10.836;2022-12-18T07:29:24;49.28;;;22.00;;
56141;SDS011;42018;48.588;10.836;2022-12-18T07:32:10;57.78;;;22.13;;
56141;SDS011;42018;48.588;10.836;2022-12-18T07:34:56;53.97;;;22.17;;
56141;SDS011;42018;48.588;10.836;2022-12-18T07:37:41;53.03;;;20.42;;
56141;SDS011;42018;48.588;10.836;2022-12-18T07:40:27;55.78;;;22.25;;
56141;SDS011;42018;48.588;10.836;2022-12-18T07:43:12;54.72;;;22.55;;
56141;SDS011;42018;48.588;10.836;2022-12-18T07:45:57;55.58;;;20.70;;
56141;SDS011;42018;48.588;10.836;2022-12-18T07:48:44;50.85;;;22.30;;
56141;SDS011;42018;48.588;10.836;2022-12-18T07:51:29;53.63;;;21.88;;
56141;SDS011;42018;48.588;10.836;2022-12-18T07:54:15;48.22;;;20.50;;
56141;SDS011;42018;48.588;10.836;2022-12-18T07:57:00;50.10;;;22.00;;
56141;SDS011;42018;48.588;10.836;2022-12-18T07:59:45;46.75;;;18.42;;
56141;SDS011;42018;48.588;10.836;2022-12-18T08:02:31;55.38;;;22.15;;
56141;SDS011;42018;48.588;10.836;2022-12-18T08:05:16;51.90;;;22.27;;
56141;SDS011;42018;48.588;10.836;2022-12-18T08:08:02;58.58;;;22.77;;
56141;SDS011;42018;48.588;10.836;2022-12-18T08:10:47;47.90;;;20.75;;
56141;SDS011;42018;48.588;10.836;2022-12-18T08:13:32;50.80;;;20.38;;
56141;SDS011;42018;48.588;10.836;2022-12-18T08:16:18;51.55;;;21.58;;
56141;SDS011;42018;48.588;10.836;2022-12-18T08:19:04;50.40;;;21.55;;
56141;SDS011;42018;48.588;10.836;2022-12-18T08:21:49;50.35;;;21.70;;
56141;SDS011;42018;48.588;10.836;2022-12-18T08:24:35;46.50;;;19.90;;
56141;SDS011;42018;48.588;10.836;2022-12-18T08:27:20;41.38;;;18.38;;
56141;SDS011;42018;48.588;10.836;2022-12-18T08:30:06;38.05;;;17.10;;
56141;SDS011;42018;48.588;10.836;2022-12-18T08:32:52;42.40;;;16.27;;
56141;SDS011;42018;48.588;10.836;2022-12-18T08:35:38;36.28;;;16.27;;
56141;SDS011;42018;48.588;10.836;2022-12-18T08:38:23;38.67;;;15.85;;
56141;SDS011;42018;48.588;10.836;2022-12-18T08:41:09;34.13;;;15.85;;
56141;SDS011;42018;48.588;10.836;2022-12-18T08:43:56;34.38;;;14.90;;
56141;SDS011;42018;48.588;10.836;2022-12-18T08:47:00;34.42;;;14.48;;
56141;SDS011;42018;48.588;10.836;2022-12-18T08:49:45;39.17;;;16.10;;
56141;SDS011;42018;48.588;10.836;2022-12-18T08:52:31;34.65;;;16.73;;
56141;SDS011;42018;48.588;10.836;2022-12-18T08:55:17;31.60;;;14.85;;
56141;SDS011;42018;48.588;10.836;2022-12-18T08:58:02;34.45;;;17.17;;
56141;SDS011;42018;48.588;10.836;2022-12-18T09:00:48;39.95;;;16.38;;
56141;SDS011;42018;48.588;10.836;2022-12-18T09:03:33;35.88;;;15.63;;
56141;SDS011;42018;48.588;10.836;2022-12-18T09:06:20;35.85;;;15.40;;
56141;SDS011;42018;48.588;10.836;2022-12-18T09:09:06;37.95;;;16.60;;
56141;SDS011;42018;48.588;10.836;2022-12-18T09:11:52;35.00;;;15.40;;
56141;SDS011;42018;48.588;10.836;2022-12-18T09:14:37;37.22;;;16.52;;
56141;SDS011;42018;48.588;10.836;2022-12-18T09:17:22;36.58;;;16.60;;
56141;SDS011;42018;48.588;10.836;2022-12-18T09:20:08;38.35;;;18.50;;
56141;SDS011;42018;48.588;10.836;2022-12-18T09:22:54;35.45;;;15.65;;
56141;SDS011;42018;48.588;10.836;2022-12-18T09:25:39;38.15;;;17.60;;
56141;SDS011;42018;48.588;10.836;2022-12-18T09:28:24;43.53;;;18.70;;
56141;SDS011;42018;48.588;10.836;2022-12-18T09:31:11;42.13;;;17.15;;
56141;SDS011;42018;48.588;10.836;2022-12-18T09:33:57;39.53;;;16.92;;
56141;SDS011;42018;48.588;10.836;2022-12-18T09:36:42;40.58;;;18.00;;
56141;SDS011;42018;48.588;10.836;2022-12-18T09:39:28;40.17;;;17.90;;
56141;SDS011;42018;48.588;10.836;2022-12-18T09:42:20;42.25;;;18.40;;
56141;SDS011;42018;48.588;10.836;2022-12-18T09:45:07;39.20;;;17.40;;
56141;SDS011;42018;48.588;10.836;2022-12-18T09:47:59;39.42;;;17.15;;
56141;SDS011;42018;48.588;10.836;2022-12-18T09:50:45;37.05;;;16.55;;
56141;SDS011;42018;48.588;10.836;2022-12-18T09:53:33;36.42;;;16.15;;
56141;SDS011;42018;48.588;10.836;2022-12-18T09:56:23;36.83;;;16.13;;
56141;SDS011;42018;48.588;10.836;2022-12-18T09:59:35;37.53;;;17.85;;
56141;SDS011;42018;48.588;10.836;2022-12-18T10:02:25;35.78;;;15.73;;
56141;SDS011;42018;48.588;10.836;2022-12-18T10:05:13;33.65;;;15.27;;
56141;SDS011;42018;48.588;10.836;2022-12-18T10:08:03;36.28;;;16.10;;
56141;SDS011;42018;48.588;10.836;2022-12-18T10:10:54;33.47;;;15.30;;
56141;SDS011;42018;48.588;10.836;2022-12-18T10:13:49;35.30;;;16.00;;
56141;SDS011;42018;48.588;10.836;2022-12-18T10:20:02;34.35;;;15.00;;
56141;SDS011;42018;48.588;10.836;2022-12-18T10:23:00;33.17;;;15.30;;
56141;SDS011;42018;48.588;10.836;2022-12-18T10:26:08;30.13;;;13.10;;
56141;SDS011;42018;48.588;10.836;2022-12-18T10:28:55;30.55;;;12.38;;
56141;SDS011;42018;48.588;10.836;2022-12-18T10:31:42;27.67;;;12.65;;
56141;SDS011;42018;48.588;10.836;2022-12-18T10:34:27;28.02;;;12.32;;
56141;SDS011;42018;48.588;10.836;2022-12-18T10:37:20;28.25;;;13.25;;
56141;SDS011;42018;48.588;10.836;2022-12-18T10:40:11;32.08;;;15.45;;
56141;SDS011;42018;48.588;10.836;2022-12-18T10:43:03;33.80;;;15.35;;
56141;SDS011;42018;48.588;10.836;2022-12-18T10:48:54;41.95;;;17.42;;
56141;SDS011;42018;48.588;10.836;2022-12-18T10:51:41;43.47;;;17.30;;
56141;SDS011;42018;48.588;10.836;2022-12-18T10:54:27;33.40;;;16.02;;
56141;SDS011;42018;48.588;10.836;2022-12-18T10:57:16;41.60;;;17.77;;
56141;SDS011;42018;48.588;10.836;2022-12-18T11:00:23;38.33;;;17.17;;
56141;SDS011;42018;48.588;10.836;2022-12-18T11:03:32;35.63;;;17.80;;
56141;SDS011;42018;48.588;10.836;2022-12-18T11:06:21;37.88;;;16.27;;
56141;SDS011;42018;48.588;10.836;2022-12-18T11:09:19;29.98;;;13.88;;
56141;SDS011;42018;48.588;10.836;2022-12-18T11:12:14;35.67;;;15.75;;
56141;SDS011;42018;48.588;10.836;2022-12-18T11:15:00;37.67;;;15.70;;
56141;SDS011;42018;48.588;10.836;2022-12-18T11:17:47;39.42;;;17.13;;
56141;SDS011;42018;48.588;10.836;2022-12-18T11:20:34;33.92;;;15.13;;
56141;SDS011;42018;48.588;10.836;2022-12-18T11:23:21;33.13;;;15.77;;
56141;SDS011;42018;48.588;10.836;2022-12-18T11:26:08;32.85;;;14.70;;
56141;SDS011;42018;48.588;10.836;2022-12-18T11:29:07;40.63;;;16.90;;
56141;SDS011;42018;48.588;10.836;2022-12-18T11:32:12;40.97;;;16.88;;
56141;SDS011;42018;48.588;10.836;2022-12-18T11:38:25;41.83;;;17.27;;
56141;SDS011;42018;48.588;10.836;2022-12-18T11:44:38;37.67;;;17.15;;
56141;SDS011;42018;48.588;10.836;2022-12-18T11:50:24;46.22;;;17.77;;
56141;SDS011;42018;48.588;10.836;2022-12-18T11:53:11;38.17;;;16.95;;
56141;SDS011;42018;48.588;10.836;2022-12-18T11:56:43;35.42;;;16.67;;
56141;SDS011;42018;48.588;10.836;2022-12-18T11:59:26;41.53;;;18.25;;
56141;SDS011;42018;48.588;10.836;2022-12-18T12:08:30;35.97;;;16.30;;
56141;SDS011;42018;48.588;10.836;2022-12-18T12:23:49;40.33;;;18.25;;
56141;SDS011;42018;48.588;10.836;2022-12-18T12:29:33;35.80;;;15.73;;
56141;SDS011;42018;48.588;10.836;2022-12-18T12:38:55;39.55;;;17.55;;
56141;SDS011;42018;48.588;10.836;2022-12-18T12:41:46;39.85;;;17.48;;
56141;SDS011;42018;48.588;10.836;2022-12-18T12:44:54;29.10;;;13.82;;
56141;SDS011;42018;48.588;10.836;2022-12-18T12:47:42;27.83;;;13.55;;
56141;SDS011;42018;48.588;10.836;2022-12-18T12:50:30;34.40;;;15.65;;
56141;SDS011;42018;48.588;10.836;2022-12-18T12:53:40;35.40;;;15.20;;
56141;SDS011;42018;48.588;10.836;2022-12-18T12:56:29;29.73;;;15.30;;
56141;SDS011;42018;48.588;10.836;2022-12-18T13:08:26;31.10;;;14.32;;
56141;SDS011;42018;48.588;10.836;2022-12-18T13:11:27;40.33;;;16.25;;
56141;SDS011;42018;48.588;10.836;2022-12-18T13:14:38;33.30;;;16.63;;
56141;SDS011;42018;48.588;10.836;2022-12-18T13:20:14;34.08;;;15.43;;
56141;SDS011;42018;48.588;10.836;2022-12-18T13:23:01;31.02;;;15.07;;
56141;SDS011;42018;48.588;10.836;2022-12-18T13:28:53;29.33;;;13.97;;
56141;SDS011;42018;48.588;10.836;2022-12-18T13:34:25;30.48;;;14.48;;
56141;SDS011;42018;48.588;10.836;2022-12-18T13:40:48;34.20;;;15.77;;
56141;SDS011;42018;48.588;10.836;2022-12-18T13:43:34;31.55;;;15.00;;
56141;SDS011;42018;48.588;10.836;2022-12-18T13:46:41;29.42;;;14.98;;
56141;SDS011;42018;48.588;10.836;2022-12-18T13:49:38;34.75;;;14.75;;
56141;SDS011;42018;48.588;10.836;2022-12-18T13:52:26;31.35;;;13.88;;
56141;SDS011;42018;48.588;10.836;2022-12-18T13:55:18;33.60;;;14.63;;
56141;SDS011;42018;48.588;10.836;2022-12-18T13:58:05;40.47;;;16.73;;
56141;SDS011;42018;48.588;10.836;2022-12-18T14:00:51;34.97;;;15.88;;
56141;SDS011;42018;48.588;10.836;2022-12-18T14:03:36;30.50;;;15.15;;
56141;SDS011;42018;48.588;10.836;2022-12-18T14:06:22;30.05;;;15.73;;
56141;SDS011;42018;48.588;10.836;2022-12-18T14:09:10;33.88;;;15.80;;
56141;SDS011;42018;48.588;10.836;2022-12-18T14:11:58;33.53;;;15.25;;
56141;SDS011;42018;48.588;10.836;2022-12-18T14:15:03;29.95;;;15.23;;
56141;SDS011;42018;48.588;10.836;2022-12-18T14:17:59;32.60;;;15.23;;
56141;SDS011;42018;48.588;10.836;2022-12-18T14:20:45;29.35;;;14.63;;
56141;SDS011;42018;48.588;10.836;2022-12-18T14:23:48;33.50;;;15.65;;
56141;SDS011;42018;48.588;10.836;2022-12-18T14:26:48;26.63;;;13.40;;
56141;SDS011;42018;48.588;10.836;2022-12-18T14:29:34;32.08;;;14.82;;
56141;SDS011;42018;48.588;10.836;2022-12-18T14:32:20;27.58;;;14.55;;
56141;SDS011;42018;48.588;10.836;2022-12-18T14:35:12;32.08;;;14.55;;
56141;SDS011;42018;48.588;10.836;2022-12-18T14:38:15;28.05;;;15.73;;
56141;SDS011;42018;48.588;10.836;2022-12-18T14:41:13;34.80;;;15.38;;
56141;SDS011;42018;48.588;10.836;2022-12-18T14:44:05;33.20;;;15.43;;
56141;SDS011;42018;48.588;10.836;2022-12-18T14:46:54;32.28;;;14.55;;
56141;SDS011;42018;48.588;10.836;2022-12-18T14:49:40;37.72;;;15.68;;
56141;SDS011;42018;48.588;10.836;2022-12-18T14:52:27;32.60;;;13.73;;
56141;SDS011;42018;48.588;10.836;2022-12-18T14:55:16;33.45;;;14.77;;
56141;SDS011;42018;48.588;10.836;2022-12-18T14:58:03;37.85;;;17.88;;
56141;SDS011;42018;48.588;10.836;2022-12-18T15:00:48;33.78;;;14.90;;
56141;SDS011;42018;48.588;10.836;2022-12-18T15:03:34;29.58;;;15.00;;
56141;SDS011;42018;48.588;10.836;2022-12-18T15:09:23;34.92;;;17.10;;
56141;SDS011;42018;48.588;10.836;2022-12-18T15:12:19;35.72;;;16.13;;
56141;SDS011;42018;48.588;10.836;2022-12-18T15:18:18;33.03;;;15.98;;
56141;SDS011;42018;48.588;10.836;2022-12-18T15:21:10;34.47;;;17.17;;
56141;SDS011;42018;48.588;10.836;2022-12-18T15:24:01;39.13;;;17.63;;
56141;SDS011;42018;48.588;10.836;2022-12-18T15:26:46;33.45;;;15.88;;
56141;SDS011;42018;48.588;10.836;2022-12-18T15:29:32;41.40;;;16.38;;
56141;SDS011;42018;48.588;10.836;2022-12-18T15:32:19;37.50;;;17.83;;
56141;SDS011;42018;48.588;10.836;2022-12-18T15:38:08;36.00;;;16.13;;
56141;SDS011;42018;48.588;10.836;2022-12-18T15:40:54;34.33;;;17.13;;
56141;SDS011;42018;48.588;10.836;2022-12-18T15:43:39;37.83;;;16.70;;
56141;SDS011;42018;48.588;10.836;2022-12-18T15:46:25;38.88;;;16.63;;
56141;SDS011;42018;48.588;10.836;2022-12-18T15:49:11;31.55;;;14.35;;
56141;SDS011;42018;48.588;10.836;2022-12-18T15:51:59;36.17;;;17.73;;
56141;SDS011;42018;48.588;10.836;2022-12-18T15:54:46;46.33;;;21.30;;
56141;SDS011;42018;48.588;10.836;2022-12-18T15:57:50;34.53;;;17.27;;
56141;SDS011;42018;48.588;10.836;2022-12-18T16:00:36;34.03;;;15.57;;
56141;SDS011;42018;48.588;10.836;2022-12-18T16:03:23;38.00;;;17.27;;
56141;SDS011;42018;48.588;10.836;2022-12-18T16:06:09;36.92;;;18.80;;
56141;SDS011;42018;48.588;10.836;2022-12-18T16:08:55;36.20;;;16.65;;
56141;SDS011;42018;48.588;10.836;2022-12-18T16:11:41;33.65;;;16.40;;
56141;SDS011;42018;48.588;10.836;2022-12-18T16:14:30;38.53;;;18.77;;
56141;SDS011;42018;48.588;10.836;2022-12-18T16:17:17;36.97;;;17.10;;
56141;SDS011;42018;48.588;10.836;2022-12-18T16:20:02;35.67;;;16.95;;
56141;SDS011;42018;48.588;10.836;2022-12-18T16:22:48;38.88;;;17.35;;
56141;SDS011;42018;48.588;10.836;2022-12-18T16:25:34;42.97;;;19.23;;
56141;SDS011;42018;48.588;10.836;2022-12-18T16:28:19;42.35;;;18.98;;
56141;SDS011;42018;48.588;10.836;2022-12-18T16:34:46;35.65;;;18.67;;
56141;SDS011;42018;48.588;10.836;2022-12-18T16:37:31;42.53;;;17.63;;
56141;SDS011;42018;48.588;10.836;2022-12-18T16:40:17;35.58;;;17.15;;
56141;SDS011;42018;48.588;10.836;2022-12-18T16:43:03;37.63;;;18.23;;
56141;SDS011;42018;48.588;10.836;2022-12-18T16:45:49;39.03;;;18.50;;
56141;SDS011;42018;48.588;10.836;2022-12-18T16:48:34;40.58;;;18.90;;
56141;SDS011;42018;48.588;10.836;2022-12-18T16:51:20;40.35;;;19.92;;
56141;SDS011;42018;48.588;10.836;2022-12-18T16:54:07;39.80;;;19.52;;
56141;SDS011;42018;48.588;10.836;2022-12-18T16:56:53;44.25;;;20.17;;
56141;SDS011;42018;48.588;10.836;2022-12-18T16:59:39;44.72;;;19.25;;
56141;SDS011;42018;48.588;10.836;2022-12-18T17:02:25;43.08;;;20.30;;
56141;SDS011;42018;48.588;10.836;2022-12-18T17:05:11;35.10;;;17.02;;
56141;SDS011;42018;48.588;10.836;2022-12-18T17:07:56;37.55;;;17.75;;
56141;SDS011;42018;48.588;10.836;2022-12-18T17:10:42;35.70;;;17.30;;
56141;SDS011;42018;48.588;10.836;2022-12-18T17:13:27;41.92;;;19.48;;
56141;SDS011;42018;48.588;10.836;2022-12-18T17:16:13;41.80;;;18.80;;
56141;SDS011;42018;48.588;10.836;2022-12-18T17:18:56;43.97;;;20.15;;
56141;SDS011;42018;48.588;10.836;2022-12-18T17:21:44;38.15;;;18.70;;
56141;SDS011;42018;48.588;10.836;2022-12-18T17:24:31;34.13;;;16.50;;
56141;SDS011;42018;48.588;10.836;2022-12-18T17:27:18;36.70;;;17.55;;
56141;SDS011;42018;48.588;10.836;2022-12-18T17:30:03;41.70;;;18.05;;
56141;SDS011;42018;48.588;10.836;2022-12-18T17:32:49;38.90;;;18.73;;
56141;SDS011;42018;48.588;10.836;2022-12-18T17:35:35;39.35;;;16.70;;
56141;SDS011;42018;48.588;10.836;2022-12-18T17:38:21;36.33;;;17.23;;
56141;SDS011;42018;48.588;10.836;2022-12-18T17:41:07;38.10;;;17.20;;
56141;SDS011;42018;48.588;10.836;2022-12-18T17:43:55;35.50;;;16.75;;
56141;SDS011;42018;48.588;10.836;2022-12-18T17:46:45;37.95;;;16.25;;
56141;SDS011;42018;48.588;10.836;2022-12-18T17:49:31;35.80;;;16.23;;
56141;SDS011;42018;48.588;10.836;2022-12-18T17:52:16;41.95;;;18.55;;
56141;SDS011;42018;48.588;10.836;2022-12-18T17:55:05;40.28;;;18.15;;
56141;SDS011;42018;48.588;10.836;2022-12-18T17:57:51;38.95;;;17.25;;
56141;SDS011;42018;48.588;10.836;2022-12-18T18:00:37;41.97;;;20.02;;
56141;SDS011;42018;48.588;10.836;2022-12-18T18:03:24;35.13;;;17.05;;
56141;SDS011;42018;48.588;10.836;2022-12-18T18:06:10;41.70;;;18.52;;